sensor_id;sensor_type;location;lat;lon;timestamp;P1;P2;P0
30342;PMS5003;17145;49.902;8.680;2022-12-26T00:01:08;3;3;
30342;PMS5003;17145;49.902;8.680;2022-12-26T00:03:38;4;4;
30342;PMS5003;17145;49.902;8.680;2022-12-26T00:06:10;3;3;
30342;PMS5003;17145;49.902;8.680;2022-12-26T00:08:39;4;4;
30342;PMS5003;17145;49.902;8.680;2022-12-26T00:11:06;2;2;
30342;PMS5003;17145;49.902;8.680;2022-12-26T00:13:33;4;4;
30342;PMS5003;17145;49.902;8.680;2022-12-26T00:16:05;4;4;
30342;PMS5003;17145;49.902;8.680;2022-12-26T00:18:33;4;3;
30342;PMS5003;17145;49.902;8.680;2022-12-26T00:21:00;4;4;
30342;PMS5003;17145;49.902;8.680;2022-12-26T00:23:29;4;4;
30342;PMS5003;17145;49.902;8.680;2022-12-26T00:26:00;4;4;
30342;PMS5003;17145;49.902;8.680;2022-12-26T00:28:28;2;2;
30342;PMS5003;17145;49.902;8.680;2022-12-26T00:30:55;4;4;
30342;PMS5003;17145;49.902;8.680;2022-12-26T00:33:23;3;3;
30342;PMS5003;17145;49.902;8.680;2022-12-26T00:35:50;4;4;
30342;PMS5003;17145;49.902;8.680;2022-12-26T00:38:17;4;4;
30342;PMS5003;17145;49.902;8.680;2022-12-26T00:40:45;4;4;
30342;PMS5003;17145;49.902;8.680;2022-12-26T00:43:12;4;3;
30342;PMS5003;17145;49.902;8.680;2022-12-26T00:45:43;3;3;
30342;PMS5003;17145;49.902;8.680;2022-12-26T00:48:10;3;3;
30342;PMS5003;17145;49.902;8.680;2022-12-26T00:50:38;4;3;
30342;PMS5003;17145;49.902;8.680;2022-12-26T00:53:05;4;4;
30342;PMS5003;17145;49.902;8.680;2022-12-26T00:55:33;3;3;
30342;PMS5003;17145;49.902;8.680;2022-12-26T00:58:00;6;4;
30342;PMS5003;17145;49.902;8.680;2022-12-26T01:00:28;3;3;
30342;PMS5003;17145;49.902;8.680;2022-12-26T01:02:55;3;3;
30342;PMS5003;17145;49.902;8.680;2022-12-26T01:05:22;3;3;
30342;PMS5003;17145;49.902;8.680;2022-12-26T01:07:50;3;3;
30342;PMS5003;17145;49.902;8.680;2022-12-26T01:10:17;5;5;
30342;PMS5003;17145;49.902;8.680;2022-12-26T01:12:45;4;4;
30342;PMS5003;17145;49.902;8.680;2022-12-26T01:15:12;5;3;
30342;PMS5003;17145;49.902;8.680;2022-12-26T01:17:40;5;5;
30342;PMS5003;17145;49.902;8.680;2022-12-26T01:20:08;4;4;
30342;PMS5003;17145;49.902;8.680;2022-12-26T01:22:36;4;4;
30342;PMS5003;17145;49.902;8.680;2022-12-26T01:25:04;3;3;
30342;PMS5003;17145;49.902;8.680;2022-12-26T01:27:32;5;5;
30342;PMS5003;17145;49.902;8.680;2022-12-26T01:30:00;6;6;
30342;PMS5003;17145;49.902;8.680;2022-12-26T01:32:27;5;5;
30342;PMS5003;17145;49.902;8.680;2022-12-26T01:34:54;4;4;
30342;PMS5003;17145;49.902;8.680;2022-12-26T01:37:22;5;4;
30342;PMS5003;17145;49.902;8.680;2022-12-26T01:39:50;6;6;
30342;PMS5003;17145;49.902;8.680;2022-12-26T01:42:19;5;5;
30342;PMS5003;17145;49.902;8.680;2022-12-26T01:44:54;6;6;
30342;PMS5003;17145;49.902;8.680;2022-12-26T01:47:29;6;6;
30342;PMS5003;17145;49.902;8.680;2022-12-26T01:50:03;6;6;
30342;PMS5003;17145;49.902;8.680;2022-12-26T01:52:34;5;5;
30342;PMS5003;17145;49.902;8.680;2022-12-26T01:55:06;4;4;
30342;PMS5003;17145;49.902;8.680;2022-12-26T01:57:38;4;4;
30342;PMS5003;17145;49.902;8.680;2022-12-26T02:00:08;4;4;
30342;PMS5003;17145;49.902;8.680;2022-12-26T02:02:37;5;4;
30342;PMS5003;17145;49.902;8.680;2022-12-26T02:05:06;5;5;
30342;PMS5003;17145;49.902;8.680;2022-12-26T02:07:35;5;5;
30342;PMS5003;17145;49.902;8.680;2022-12-26T02:10:05;5;4;
30342;PMS5003;17145;49.902;8.680;2022-12-26T02:12:35;6;4;
30342;PMS5003;17145;49.902;8.680;2022-12-26T02:15:03;5;5;
30342;PMS5003;17145;49.902;8.680;2022-12-26T02:17:32;4;4;
30342;PMS5003;17145;49.902;8.680;2022-12-26T02:20:00;4;4;
30342;PMS5003;17145;49.902;8.680;2022-12-26T02:22:44;6;4;
30342;PMS5003;17145;49.902;8.680;2022-12-26T02:25:25;3;3;
30342;PMS5003;17145;49.902;8.680;2022-12-26T02:30:51;3;3;
30342;PMS5003;17145;49.902;8.680;2022-12-26T02:33:27;4;4;
30342;PMS5003;17145;49.902;8.680;2022-12-26T02:36:11;3;3;
30342;PMS5003;17145;49.902;8.680;2022-12-26T02:38:51;4;4;
30342;PMS5003;17145;49.902;8.680;2022-12-26T02:41:30;5;5;
30342;PMS5003;17145;49.902;8.680;2022-12-26T02:44:07;3;3;
30342;PMS5003;17145;49.902;8.680;2022-12-26T02:46:44;3;3;
30342;PMS5003;17145;49.902;8.680;2022-12-26T02:49:20;3;3;
30342;PMS5003;17145;49.902;8.680;2022-12-26T02:51:59;2;2;
30342;PMS5003;17145;49.902;8.680;2022-12-26T02:54:35;3;3;
30342;PMS5003;17145;49.902;8.680;2022-12-26T02:57:11;2;2;
30342;PMS5003;17145;49.902;8.680;2022-12-26T02:59:46;2;2;
30342;PMS5003;17145;49.902;8.680;2022-12-26T03:02:21;3;2;
30342;PMS5003;17145;49.902;8.680;2022-12-26T03:04:54;3;3;
30342;PMS5003;17145;49.902;8.680;2022-12-26T03:07:24;3;3;
30342;PMS5003;17145;49.902;8.680;2022-12-26T03:09:56;4;4;
30342;PMS5003;17145;49.902;8.680;2022-12-26T03:12:32;6;6;
30342;PMS5003;17145;49.902;8.680;2022-12-26T03:15:05;4;4;
30342;PMS5003;17145;49.902;8.680;2022-12-26T03:17:36;7;6;
30342;PMS5003;17145;49.902;8.680;2022-12-26T03:20:08;7;7;
30342;PMS5003;17145;49.902;8.680;2022-12-26T03:22:40;7;7;
30342;PMS5003;17145;49.902;8.680;2022-12-26T03:25:11;9;9;
30342;PMS5003;17145;49.902;8.680;2022-12-26T03:27:43;11;10;
30342;PMS5003;17145;49.902;8.680;2022-12-26T03:30:11;14;12;
30342;PMS5003;17145;49.902;8.680;2022-12-26T03:32:41;10;10;
30342;PMS5003;17145;49.902;8.680;2022-12-26T03:35:10;11;11;
30342;PMS5003;17145;49.902;8.680;2022-12-26T03:37:41;13;13;
30342;PMS5003;17145;49.902;8.680;2022-12-26T03:40:15;12;11;
30342;PMS5003;17145;49.902;8.680;2022-12-26T03:42:54;7;7;
30342;PMS5003;17145;49.902;8.680;2022-12-26T03:45:34;10;9;
30342;PMS5003;17145;49.902;8.680;2022-12-26T03:48:11;9;9;
30342;PMS5003;17145;49.902;8.680;2022-12-26T03:50:48;9;9;
30342;PMS5003;17145;49.902;8.680;2022-12-26T03:53:22;7;7;
30342;PMS5003;17145;49.902;8.680;2022-12-26T03:55:56;10;9;
30342;PMS5003;17145;49.902;8.680;2022-12-26T03:58:31;9;9;
30342;PMS5003;17145;49.902;8.680;2022-12-26T04:01:05;10;10;
30342;PMS5003;17145;49.902;8.680;2022-12-26T04:03:38;10;10;
30342;PMS5003;17145;49.902;8.680;2022-12-26T04:06:12;6;6;
30342;PMS5003;17145;49.902;8.680;2022-12-26T04:08:45;11;11;
30342;PMS5003;17145;49.902;8.680;2022-12-26T04:11:19;11;11;
30342;PMS5003;17145;49.902;8.680;2022-12-26T04:13:50;11;10;
30342;PMS5003;17145;49.902;8.680;2022-12-26T04:16:29;14;13;
30342;PMS5003;17145;49.902;8.680;2022-12-26T04:19:01;10;9;
30342;PMS5003;17145;49.902;8.680;2022-12-26T04:21:38;14;11;
30342;PMS5003;17145;49.902;8.680;2022-12-26T04:24:11;13;13;
30342;PMS5003;17145;49.902;8.680;2022-12-26T04:26:44;13;13;
30342;PMS5003;17145;49.902;8.680;2022-12-26T04:29:16;12;11;
30342;PMS5003;17145;49.902;8.680;2022-12-26T04:31:44;10;9;
30342;PMS5003;17145;49.902;8.680;2022-12-26T04:34:19;10;10;
30342;PMS5003;17145;49.902;8.680;2022-12-26T04:36:53;9;7;
30342;PMS5003;17145;49.902;8.680;2022-12-26T04:39:25;7;7;
30342;PMS5003;17145;49.902;8.680;2022-12-26T04:41:57;7;7;
30342;PMS5003;17145;49.902;8.680;2022-12-26T04:44:26;6;6;
30342;PMS5003;17145;49.902;8.680;2022-12-26T04:46:55;8;8;
30342;PMS5003;17145;49.902;8.680;2022-12-26T04:49:22;6;6;
30342;PMS5003;17145;49.902;8.680;2022-12-26T04:51:50;6;6;
30342;PMS5003;17145;49.902;8.680;2022-12-26T04:54:18;9;7;
30342;PMS5003;17145;49.902;8.680;2022-12-26T04:56:45;6;5;
30342;PMS5003;17145;49.902;8.680;2022-12-26T04:59:12;5;5;
30342;PMS5003;17145;49.902;8.680;2022-12-26T05:01:40;6;6;
30342;PMS5003;17145;49.902;8.680;2022-12-26T05:04:09;6;6;
30342;PMS5003;17145;49.902;8.680;2022-12-26T05:06:39;6;6;
30342;PMS5003;17145;49.902;8.680;2022-12-26T05:09:07;9;7;
30342;PMS5003;17145;49.902;8.680;2022-12-26T05:11:36;6;6;
30342;PMS5003;17145;49.902;8.680;2022-12-26T05:14:03;7;7;
30342;PMS5003;17145;49.902;8.680;2022-12-26T05:16:31;7;7;
30342;PMS5003;17145;49.902;8.680;2022-12-26T05:18:58;9;9;
30342;PMS5003;17145;49.902;8.680;2022-12-26T05:21:26;4;4;
30342;PMS5003;17145;49.902;8.680;2022-12-26T05:23:53;6;6;
30342;PMS5003;17145;49.902;8.680;2022-12-26T05:26:21;10;9;
30342;PMS5003;17145;49.902;8.680;2022-12-26T05:28:51;11;10;
30342;PMS5003;17145;49.902;8.680;2022-12-26T05:31:23;12;11;
30342;PMS5003;17145;49.902;8.680;2022-12-26T05:33:50;11;11;
30342;PMS5003;17145;49.902;8.680;2022-12-26T05:36:18;11;10;
30342;PMS5003;17145;49.902;8.680;2022-12-26T05:38:47;10;9;
30342;PMS5003;17145;49.902;8.680;2022-12-26T05:41:15;7;7;
30342;PMS5003;17145;49.902;8.680;2022-12-26T05:43:43;6;6;
30342;PMS5003;17145;49.902;8.680;2022-12-26T05:46:10;5;5;
30342;PMS5003;17145;49.902;8.680;2022-12-26T05:48:37;4;4;
30342;PMS5003;17145;49.902;8.680;2022-12-26T05:51:05;4;3;
30342;PMS5003;17145;49.902;8.680;2022-12-26T05:53:32;3;3;
30342;PMS5003;17145;49.902;8.680;2022-12-26T05:56:01;4;4;
30342;PMS5003;17145;49.902;8.680;2022-12-26T05:58:29;4;4;
30342;PMS5003;17145;49.902;8.680;2022-12-26T06:01:06;3;2;
30342;PMS5003;17145;49.902;8.680;2022-12-26T06:03:35;4;4;
30342;PMS5003;17145;49.902;8.680;2022-12-26T06:06:03;2;2;
30342;PMS5003;17145;49.902;8.680;2022-12-26T06:08:32;3;3;
30342;PMS5003;17145;49.902;8.680;2022-12-26T06:11:01;2;2;
30342;PMS5003;17145;49.902;8.680;2022-12-26T06:13:30;2;2;
30342;PMS5003;17145;49.902;8.680;2022-12-26T06:15:57;1;1;
30342;PMS5003;17145;49.902;8.680;2022-12-26T06:18:25;1;0;
30342;PMS5003;17145;49.902;8.680;2022-12-26T06:20:52;1;1;
30342;PMS5003;17145;49.902;8.680;2022-12-26T06:23:20;2;2;
30342;PMS5003;17145;49.902;8.680;2022-12-26T06:25:52;2;2;
30342;PMS5003;17145;49.902;8.680;2022-12-26T06:28:20;2;2;
30342;PMS5003;17145;49.902;8.680;2022-12-26T06:30:48;2;2;
30342;PMS5003;17145;49.902;8.680;2022-12-26T06:33:16;2;2;
30342;PMS5003;17145;49.902;8.680;2022-12-26T06:35:44;2;2;
30342;PMS5003;17145;49.902;8.680;2022-12-26T06:38:11;2;2;
30342;PMS5003;17145;49.902;8.680;2022-12-26T06:40:39;2;2;
30342;PMS5003;17145;49.902;8.680;2022-12-26T06:43:07;2;2;
30342;PMS5003;17145;49.902;8.680;2022-12-26T06:45:35;2;2;
30342;PMS5003;17145;49.902;8.680;2022-12-26T06:48:02;3;3;
30342;PMS5003;17145;49.902;8.680;2022-12-26T06:50:30;3;3;
30342;PMS5003;17145;49.902;8.680;2022-12-26T06:52:57;2;2;
30342;PMS5003;17145;49.902;8.680;2022-12-26T06:55:25;2;2;
30342;PMS5003;17145;49.902;8.680;2022-12-26T06:57:52;2;2;
30342;PMS5003;17145;49.902;8.680;2022-12-26T07:00:20;3;3;
30342;PMS5003;17145;49.902;8.680;2022-12-26T07:02:48;3;3;
30342;PMS5003;17145;49.902;8.680;2022-12-26T07:05:16;8;5;
30342;PMS5003;17145;49.902;8.680;2022-12-26T07:07:48;6;6;
30342;PMS5003;17145;49.902;8.680;2022-12-26T07:10:17;5;5;
30342;PMS5003;17145;49.902;8.680;2022-12-26T07:12:44;7;6;
30342;PMS5003;17145;49.902;8.680;2022-12-26T07:15:11;4;4;
30342;PMS5003;17145;49.902;8.680;2022-12-26T07:17:39;6;5;
30342;PMS5003;17145;49.902;8.680;2022-12-26T07:20:07;7;6;
30342;PMS5003;17145;49.902;8.680;2022-12-26T07:22:35;6;5;
30342;PMS5003;17145;49.902;8.680;2022-12-26T07:25:03;5;5;
30342;PMS5003;17145;49.902;8.680;2022-12-26T07:27:31;3;3;
30342;PMS5003;17145;49.902;8.680;2022-12-26T07:29:58;4;4;
30342;PMS5003;17145;49.902;8.680;2022-12-26T07:32:25;5;5;
30342;PMS5003;17145;49.902;8.680;2022-12-26T07:34:53;4;4;
30342;PMS5003;17145;49.902;8.680;2022-12-26T07:37:20;2;2;
30342;PMS5003;17145;49.902;8.680;2022-12-26T07:39:48;3;3;
30342;PMS5003;17145;49.902;8.680;2022-12-26T07:42:15;2;2;
30342;PMS5003;17145;49.902;8.680;2022-12-26T07:44:42;3;3;
30342;PMS5003;17145;49.902;8.680;2022-12-26T07:47:10;3;3;
30342;PMS5003;17145;49.902;8.680;2022-12-26T07:49:37;2;2;
30342;PMS5003;17145;49.902;8.680;2022-12-26T07:52:04;4;4;
30342;PMS5003;17145;49.902;8.680;2022-12-26T07:54:32;4;4;
30342;PMS5003;17145;49.902;8.680;2022-12-26T07:56:59;3;3;
30342;PMS5003;17145;49.902;8.680;2022-12-26T07:59:27;4;4;
30342;PMS5003;17145;49.902;8.680;2022-12-26T08:01:54;4;3;
30342;PMS5003;17145;49.902;8.680;2022-12-26T08:04:22;3;3;
30342;PMS5003;17145;49.902;8.680;2022-12-26T08:06:49;4;4;
30342;PMS5003;17145;49.902;8.680;2022-12-26T08:09:17;5;4;
30342;PMS5003;17145;49.902;8.680;2022-12-26T08:11:44;4;4;
30342;PMS5003;17145;49.902;8.680;2022-12-26T08:14:12;5;4;
30342;PMS5003;17145;49.902;8.680;2022-12-26T08:16:40;6;5;
30342;PMS5003;17145;49.902;8.680;2022-12-26T08:19:07;6;5;
30342;PMS5003;17145;49.902;8.680;2022-12-26T08:21:35;4;4;
30342;PMS5003;17145;49.902;8.680;2022-12-26T08:24:02;4;4;
30342;PMS5003;17145;49.902;8.680;2022-12-26T08:26:30;3;3;
30342;PMS5003;17145;49.902;8.680;2022-12-26T08:28:57;6;5;
30342;PMS5003;17145;49.902;8.680;2022-12-26T08:31:24;6;5;
30342;PMS5003;17145;49.902;8.680;2022-12-26T08:33:53;3;3;
30342;PMS5003;17145;49.902;8.680;2022-12-26T08:36:21;6;5;
30342;PMS5003;17145;49.902;8.680;2022-12-26T08:38:48;5;4;
30342;PMS5003;17145;49.902;8.680;2022-12-26T08:41:16;4;4;
30342;PMS5003;17145;49.902;8.680;2022-12-26T08:43:46;3;3;
30342;PMS5003;17145;49.902;8.680;2022-12-26T08:46:14;4;3;
30342;PMS5003;17145;49.902;8.680;2022-12-26T08:48:42;2;2;
30342;PMS5003;17145;49.902;8.680;2022-12-26T08:51:11;4;4;
30342;PMS5003;17145;49.902;8.680;2022-12-26T08:53:41;4;4;
30342;PMS5003;17145;49.902;8.680;2022-12-26T08:56:11;4;4;
30342;PMS5003;17145;49.902;8.680;2022-12-26T08:58:39;5;5;
30342;PMS5003;17145;49.902;8.680;2022-12-26T09:01:08;4;4;
30342;PMS5003;17145;49.902;8.680;2022-12-26T09:03:36;4;4;
30342;PMS5003;17145;49.902;8.680;2022-12-26T09:06:04;4;4;
30342;PMS5003;17145;49.902;8.680;2022-12-26T09:08:32;5;5;
30342;PMS5003;17145;49.902;8.680;2022-12-26T09:11:02;5;4;
30342;PMS5003;17145;49.902;8.680;2022-12-26T09:13:30;4;4;
30342;PMS5003;17145;49.902;8.680;2022-12-26T09:16:04;4;4;
30342;PMS5003;17145;49.902;8.680;2022-12-26T09:18:33;4;3;
30342;PMS5003;17145;49.902;8.680;2022-12-26T09:21:02;4;3;
30342;PMS5003;17145;49.902;8.680;2022-12-26T09:23:32;3;3;
30342;PMS5003;17145;49.902;8.680;2022-12-26T09:26:03;3;3;
30342;PMS5003;17145;49.902;8.680;2022-12-26T09:28:32;3;3;
30342;PMS5003;17145;49.902;8.680;2022-12-26T09:31:00;4;4;
30342;PMS5003;17145;49.902;8.680;2022-12-26T09:33:29;4;4;
30342;PMS5003;17145;49.902;8.680;2022-12-26T09:35:56;3;3;
30342;PMS5003;17145;49.902;8.680;2022-12-26T09:38:24;4;3;
30342;PMS5003;17145;49.902;8.680;2022-12-26T09:40:54;5;4;
30342;PMS5003;17145;49.902;8.680;2022-12-26T09:43:37;4;3;
30342;PMS5003;17145;49.902;8.680;2022-12-26T09:46:17;4;4;
30342;PMS5003;17145;49.902;8.680;2022-12-26T09:48:57;4;4;
30342;PMS5003;17145;49.902;8.680;2022-12-26T09:51:28;5;4;
30342;PMS5003;17145;49.902;8.680;2022-12-26T09:54:00;3;3;
30342;PMS5003;17145;49.902;8.680;2022-12-26T09:56:31;6;4;
30342;PMS5003;17145;49.902;8.680;2022-12-26T09:59:04;4;3;
30342;PMS5003;17145;49.902;8.680;2022-12-26T10:01:37;4;3;
30342;PMS5003;17145;49.902;8.680;2022-12-26T10:04:06;2;2;
30342;PMS5003;17145;49.902;8.680;2022-12-26T10:06:36;5;3;
30342;PMS5003;17145;49.902;8.680;2022-12-26T10:11:50;8;5;
30342;PMS5003;17145;49.902;8.680;2022-12-26T10:14:27;3;3;
30342;PMS5003;17145;49.902;8.680;2022-12-26T10:17:04;3;3;
30342;PMS5003;17145;49.902;8.680;2022-12-26T10:19:42;3;2;
30342;PMS5003;17145;49.902;8.680;2022-12-26T10:22:24;3;3;
30342;PMS5003;17145;49.902;8.680;2022-12-26T10:25:03;2;2;
30342;PMS5003;17145;49.902;8.680;2022-12-26T10:27:40;5;4;
30342;PMS5003;17145;49.902;8.680;2022-12-26T10:30:14;3;3;
30342;PMS5003;17145;49.902;8.680;2022-12-26T10:32:47;4;3;
30342;PMS5003;17145;49.902;8.680;2022-12-26T10:35:21;3;3;
30342;PMS5003;17145;49.902;8.680;2022-12-26T10:37:55;3;3;
30342;PMS5003;17145;49.902;8.680;2022-12-26T10:40:32;4;4;
30342;PMS5003;17145;49.902;8.680;2022-12-26T10:43:17;3;2;
30342;PMS5003;17145;49.902;8.680;2022-12-26T10:45:41;3;3;
30342;PMS5003;17145;49.902;8.680;2022-12-26T10:48:16;5;3;
30342;PMS5003;17145;49.902;8.680;2022-12-26T10:50:44;4;3;
30342;PMS5003;17145;49.902;8.680;2022-12-26T10:53:14;3;3;
30342;PMS5003;17145;49.902;8.680;2022-12-26T10:55:43;2;2;
30342;PMS5003;17145;49.902;8.680;2022-12-26T10:58:13;5;4;
30342;PMS5003;17145;49.902;8.680;2022-12-26T11:00:44;4;3;
30342;PMS5003;17145;49.902;8.680;2022-12-26T11:03:12;4;4;
30342;PMS5003;17145;49.902;8.680;2022-12-26T11:05:42;4;4;
30342;PMS5003;17145;49.902;8.680;2022-12-26T11:08:14;5;4;
30342;PMS5003;17145;49.902;8.680;2022-12-26T11:11:00;4;3;
30342;PMS5003;17145;49.902;8.680;2022-12-26T11:13:24;4;3;
30342;PMS5003;17145;49.902;8.680;2022-12-26T11:15:52;5;4;
30342;PMS5003;17145;49.902;8.680;2022-12-26T11:18:21;4;4;
30342;PMS5003;17145;49.902;8.680;2022-12-26T11:20:53;2;2;
30342;PMS5003;17145;49.902;8.680;2022-12-26T11:23:23;3;3;
30342;PMS5003;17145;49.902;8.680;2022-12-26T11:25:53;9;7;
30342;PMS5003;17145;49.902;8.680;2022-12-26T11:28:24;9;9;
30342;PMS5003;17145;49.902;8.680;2022-12-26T11:30:53;10;10;
30342;PMS5003;17145;49.902;8.680;2022-12-26T11:33:23;9;9;
30342;PMS5003;17145;49.902;8.680;2022-12-26T11:35:59;11;11;
30342;PMS5003;17145;49.902;8.680;2022-12-26T11:38:42;7;7;
30342;PMS5003;17145;49.902;8.680;2022-12-26T11:41:14;11;10;
30342;PMS5003;17145;49.902;8.680;2022-12-26T11:43:44;15;7;
30342;PMS5003;17145;49.902;8.680;2022-12-26T11:46:12;11;11;
30342;PMS5003;17145;49.902;8.680;2022-12-26T11:48:40;13;13;
30342;PMS5003;17145;49.902;8.680;2022-12-26T11:51:13;12;12;
30342;PMS5003;17145;49.902;8.680;2022-12-26T11:53:40;13;12;
30342;PMS5003;17145;49.902;8.680;2022-12-26T11:56:07;12;12;
30342;PMS5003;17145;49.902;8.680;2022-12-26T11:58:35;14;13;
30342;PMS5003;17145;49.902;8.680;2022-12-26T12:01:04;21;21;
30342;PMS5003;17145;49.902;8.680;2022-12-26T12:03:38;20;20;
30342;PMS5003;17145;49.902;8.680;2022-12-26T12:08:48;8;6;
30342;PMS5003;17145;49.902;8.680;2022-12-26T12:11:26;4;4;
30342;PMS5003;17145;49.902;8.680;2022-12-26T12:14:05;6;5;
30342;PMS5003;17145;49.902;8.680;2022-12-26T12:16:45;5;4;
30342;PMS5003;17145;49.902;8.680;2022-12-26T12:19:25;10;6;
30342;PMS5003;17145;49.902;8.680;2022-12-26T12:22:05;8;4;
30342;PMS5003;17145;49.902;8.680;2022-12-26T12:24:44;10;8;
30342;PMS5003;17145;49.902;8.680;2022-12-26T12:27:25;11;10;
30342;PMS5003;17145;49.902;8.680;2022-12-26T12:30:01;11;10;
30342;PMS5003;17145;49.902;8.680;2022-12-26T12:32:39;12;11;
30342;PMS5003;17145;49.902;8.680;2022-12-26T12:35:21;9;9;
30342;PMS5003;17145;49.902;8.680;2022-12-26T12:38:02;3;3;
30342;PMS5003;17145;49.902;8.680;2022-12-26T12:40:43;17;16;
30342;PMS5003;17145;49.902;8.680;2022-12-26T12:43:17;4;3;
30342;PMS5003;17145;49.902;8.680;2022-12-26T12:45:53;4;3;
30342;PMS5003;17145;49.902;8.680;2022-12-26T12:48:32;5;3;
30342;PMS5003;17145;49.902;8.680;2022-12-26T12:51:11;4;4;
30342;PMS5003;17145;49.902;8.680;2022-12-26T12:56:27;5;4;
30342;PMS5003;17145;49.902;8.680;2022-12-26T12:59:00;6;5;
30342;PMS5003;17145;49.902;8.680;2022-12-26T13:01:37;3;3;
30342;PMS5003;17145;49.902;8.680;2022-12-26T13:04:09;18;17;
30342;PMS5003;17145;49.902;8.680;2022-12-26T13:06:42;2;2;
30342;PMS5003;17145;49.902;8.680;2022-12-26T13:09:15;6;3;
30342;PMS5003;17145;49.902;8.680;2022-12-26T13:11:48;5;4;
30342;PMS5003;17145;49.902;8.680;2022-12-26T13:14:21;4;3;
30342;PMS5003;17145;49.902;8.680;2022-12-26T13:16:51;3;2;
30342;PMS5003;17145;49.902;8.680;2022-12-26T13:19:23;4;4;
30342;PMS5003;17145;49.902;8.680;2022-12-26T13:21:54;4;4;
30342;PMS5003;17145;49.902;8.680;2022-12-26T13:24:29;3;3;
30342;PMS5003;17145;49.902;8.680;2022-12-26T13:27:00;5;4;
30342;PMS5003;17145;49.902;8.680;2022-12-26T13:29:36;2;2;
30342;PMS5003;17145;49.902;8.680;2022-12-26T13:34:43;2;2;
30342;PMS5003;17145;49.902;8.680;2022-12-26T13:39:52;5;4;
30342;PMS5003;17145;49.902;8.680;2022-12-26T13:42:25;3;3;
30342;PMS5003;17145;49.902;8.680;2022-12-26T13:47:41;6;4;
30342;PMS5003;17145;49.902;8.680;2022-12-26T13:52:55;3;3;
30342;PMS5003;17145;49.902;8.680;2022-12-26T13:55:29;4;3;
30342;PMS5003;17145;49.902;8.680;2022-12-26T13:58:07;3;3;
30342;PMS5003;17145;49.902;8.680;2022-12-26T14:00:52;6;5;
30342;PMS5003;17145;49.902;8.680;2022-12-26T14:03:29;6;3;
30342;PMS5003;17145;49.902;8.680;2022-12-26T14:06:13;3;3;
30342;PMS5003;17145;49.902;8.680;2022-12-26T14:09:04;4;3;
30342;PMS5003;17145;49.902;8.680;2022-12-26T14:11:46;5;4;
30342;PMS5003;17145;49.902;8.680;2022-12-26T14:14:29;11;4;
30342;PMS5003;17145;49.902;8.680;2022-12-26T14:17:07;5;4;
30342;PMS5003;17145;49.902;8.680;2022-12-26T14:19:42;3;3;
30342;PMS5003;17145;49.902;8.680;2022-12-26T14:22:18;5;4;
30342;PMS5003;17145;49.902;8.680;2022-12-26T14:24:58;3;2;
30342;PMS5003;17145;49.902;8.680;2022-12-26T14:27:36;4;3;
30342;PMS5003;17145;49.902;8.680;2022-12-26T14:32:50;3;2;
30342;PMS5003;17145;49.902;8.680;2022-12-26T14:35:27;5;4;
30342;PMS5003;17145;49.902;8.680;2022-12-26T14:38:02;4;4;
30342;PMS5003;17145;49.902;8.680;2022-12-26T14:40:55;5;5;
30342;PMS5003;17145;49.902;8.680;2022-12-26T14:43:25;5;4;
30342;PMS5003;17145;49.902;8.680;2022-12-26T14:45:58;5;4;
30342;PMS5003;17145;49.902;8.680;2022-12-26T14:56:40;3;3;
30342;PMS5003;17145;49.902;8.680;2022-12-26T15:07:27;4;3;
30342;PMS5003;17145;49.902;8.680;2022-12-26T15:10:09;3;2;
30342;PMS5003;17145;49.902;8.680;2022-12-26T15:12:58;4;2;
30342;PMS5003;17145;49.902;8.680;2022-12-26T15:15:44;3;3;
30342;PMS5003;17145;49.902;8.680;2022-12-26T15:18:29;5;4;
30342;PMS5003;17145;49.902;8.680;2022-12-26T15:21:09;4;3;
30342;PMS5003;17145;49.902;8.680;2022-12-26T15:24:04;3;3;
30342;PMS5003;17145;49.902;8.680;2022-12-26T15:26:50;5;5;
30342;PMS5003;17145;49.902;8.680;2022-12-26T15:29:32;5;5;
30342;PMS5003;17145;49.902;8.680;2022-12-26T15:32:12;4;4;
30342;PMS5003;17145;49.902;8.680;2022-12-26T15:34:48;3;3;
30342;PMS5003;17145;49.902;8.680;2022-12-26T15:40:10;4;3;
30342;PMS5003;17145;49.902;8.680;2022-12-26T15:42:43;4;1;
30342;PMS5003;17145;49.902;8.680;2022-12-26T15:45:23;3;1;
30342;PMS5003;17145;49.902;8.680;2022-12-26T15:48:02;3;3;
30342;PMS5003;17145;49.902;8.680;2022-12-26T15:50:40;6;4;
30342;PMS5003;17145;49.902;8.680;2022-12-26T15:53:19;3;3;
30342;PMS5003;17145;49.902;8.680;2022-12-26T15:56:00;2;2;
30342;PMS5003;17145;49.902;8.680;2022-12-26T16:03:54;3;2;
30342;PMS5003;17145;49.902;8.680;2022-12-26T16:06:28;4;4;
30342;PMS5003;17145;49.902;8.680;2022-12-26T16:09:07;3;3;
30342;PMS5003;17145;49.902;8.680;2022-12-26T16:11:48;3;3;
30342;PMS5003;17145;49.902;8.680;2022-12-26T16:14:26;3;2;
30342;PMS5003;17145;49.902;8.680;2022-12-26T16:19:41;4;3;
30342;PMS5003;17145;49.902;8.680;2022-12-26T16:22:11;3;3;
30342;PMS5003;17145;49.902;8.680;2022-12-26T16:24:42;2;2;
30342;PMS5003;17145;49.902;8.680;2022-12-26T16:27:13;4;4;
30342;PMS5003;17145;49.902;8.680;2022-12-26T16:29:44;3;2;
30342;PMS5003;17145;49.902;8.680;2022-12-26T16:32:16;4;3;
30342;PMS5003;17145;49.902;8.680;2022-12-26T16:34:46;3;3;
30342;PMS5003;17145;49.902;8.680;2022-12-26T16:37:17;5;4;
30342;PMS5003;17145;49.902;8.680;2022-12-26T16:42:29;3;2;
30342;PMS5003;17145;49.902;8.680;2022-12-26T16:44:57;2;2;
30342;PMS5003;17145;49.902;8.680;2022-12-26T16:47:26;4;3;
30342;PMS5003;17145;49.902;8.680;2022-12-26T16:49:56;3;2;
30342;PMS5003;17145;49.902;8.680;2022-12-26T16:52:29;8;4;
30342;PMS5003;17145;49.902;8.680;2022-12-26T16:57:41;3;3;
30342;PMS5003;17145;49.902;8.680;2022-12-26T17:00:13;4;3;
30342;PMS5003;17145;49.902;8.680;2022-12-26T17:02:43;2;2;
30342;PMS5003;17145;49.902;8.680;2022-12-26T17:05:16;5;4;
30342;PMS5003;17145;49.902;8.680;2022-12-26T17:07:48;4;4;
30342;PMS5003;17145;49.902;8.680;2022-12-26T17:10:17;4;3;
30342;PMS5003;17145;49.902;8.680;2022-12-26T17:12:48;4;3;
30342;PMS5003;17145;49.902;8.680;2022-12-26T17:15:17;5;3;
30342;PMS5003;17145;49.902;8.680;2022-12-26T17:17:47;4;3;
30342;PMS5003;17145;49.902;8.680;2022-12-26T17:22:58;3;2;
30342;PMS5003;17145;49.902;8.680;2022-12-26T17:25:31;4;4;
30342;PMS5003;17145;49.902;8.680;2022-12-26T17:30:43;4;4;
30342;PMS5003;17145;49.902;8.680;2022-12-26T17:33:14;4;2;
30342;PMS5003;17145;49.902;8.680;2022-12-26T17:35:46;6;5;
30342;PMS5003;17145;49.902;8.680;2022-12-26T17:38:16;5;3;
30342;PMS5003;17145;49.902;8.680;2022-12-26T17:40:46;5;3;
30342;PMS5003;17145;49.902;8.680;2022-12-26T17:43:19;4;4;
30342;PMS5003;17145;49.902;8.680;2022-12-26T17:45:49;3;3;
30342;PMS5003;17145;49.902;8.680;2022-12-26T17:48:17;5;5;
30342;PMS5003;17145;49.902;8.680;2022-12-26T17:50:45;3;3;
30342;PMS5003;17145;49.902;8.680;2022-12-26T17:53:19;3;3;
30342;PMS5003;17145;49.902;8.680;2022-12-26T17:55:51;4;2;
30342;PMS5003;17145;49.902;8.680;2022-12-26T17:58:19;9;5;
30342;PMS5003;17145;49.902;8.680;2022-12-26T18:00:48;4;4;
30342;PMS5003;17145;49.902;8.680;2022-12-26T18:03:16;2;2;
30342;PMS5003;17145;49.902;8.680;2022-12-26T18:05:44;4;4;
30342;PMS5003;17145;49.902;8.680;2022-12-26T18:08:23;4;4;
30342;PMS5003;17145;49.902;8.680;2022-12-26T18:10:51;5;4;
30342;PMS5003;17145;49.902;8.680;2022-12-26T18:13:19;5;4;
30342;PMS5003;17145;49.902;8.680;2022-12-26T18:15:47;5;4;
30342;PMS5003;17145;49.902;8.680;2022-12-26T18:18:20;4;4;
30342;PMS5003;17145;49.902;8.680;2022-12-26T18:20:51;5;4;